createdAt,value
2022-09-26T00:02:09.884Z,12.80
2022-09-26T00:04:37.925Z,12.80
2022-09-26T00:07:06.495Z,14.70
2022-09-26T00:09:34.855Z,17.70
2022-09-26T00:12:04.468Z,14.30
2022-09-26T00:14:32.825Z,14.30
2022-09-26T00:17:01.386Z,13.90
2022-09-26T00:19:29.671Z,14.30
2022-09-26T00:21:58.729Z,16.20
2022-09-26T00:24:37.850Z,15.10
2022-09-26T00:27:13.782Z,13.60
2022-09-26T00:29:56.936Z,9.90
2022-09-26T00:32:38.822Z,10.60
2022-09-26T00:35:28.255Z,12.30
2022-09-26T00:38:02.574Z,10.80
2022-09-26T00:40:44.716Z,14.60
2022-09-26T00:43:41.466Z,10.60
2022-09-26T00:46:46.149Z,11.40
2022-09-26T00:49:28.486Z,12.90
2022-09-26T00:52:16.968Z,12.10
2022-09-26T00:54:59.902Z,12.00
2022-09-26T00:57:35.672Z,13.60
2022-09-26T01:00:09.601Z,13.10
2022-09-26T01:02:39.364Z,12.50
2022-09-26T01:05:10.210Z,11.30
2022-09-26T01:07:38.539Z,12.90
2022-09-26T01:10:07.594Z,12.40
2022-09-26T01:12:38.190Z,11.30
2022-09-26T01:15:09.190Z,12.50
2022-09-26T01:17:40.075Z,13.90
2022-09-26T01:20:22.659Z,13.50
2022-09-26T01:23:28.209Z,14.10
2022-09-26T01:26:39.499Z,14.50
2022-09-26T01:29:35.762Z,14.10
2022-09-26T01:32:28.733Z,14.20
2022-09-26T01:35:00.472Z,14.70
2022-09-26T01:37:55.166Z,10.30
2022-09-26T01:40:42.395Z,12.50
2022-09-26T01:43:16.353Z,13.10
2022-09-26T01:46:12.589Z,17.00
2022-09-26T01:48:48.570Z,12.70
2022-09-26T01:51:33.339Z,11.30
2022-09-26T01:54:19.369Z,10.20
2022-09-26T01:56:58.480Z,12.40
2022-09-26T01:59:39.523Z,11.20
2022-09-26T02:02:24.566Z,11.30
2022-09-26T02:05:07.263Z,13.10
2022-09-26T02:08:06.152Z,10.90
2022-09-26T02:10:40.395Z,11.00
2022-09-26T02:13:23.244Z,9.70
2022-09-26T02:15:56.886Z,12.40
2022-09-26T02:18:40.925Z,11.50
2022-09-26T02:21:17.634Z,11.10
2022-09-26T02:23:47.773Z,12.80
2022-09-26T02:26:17.984Z,13.80
2022-09-26T02:28:46.633Z,12.10
2022-09-26T02:31:23.082Z,12.30
2022-09-26T02:33:52.850Z,13.20
2022-09-26T02:36:22.273Z,12.00
2022-09-26T02:38:50.392Z,12.80
2022-09-26T02:41:44.625Z,12.10
2022-09-26T02:45:17.373Z,13.30
2022-09-26T02:48:09.917Z,13.90
2022-09-26T02:51:01.187Z,11.90
2022-09-26T02:53:38.351Z,14.50
2022-09-26T02:56:23.621Z,11.50
2022-09-26T02:59:10.497Z,11.90
2022-09-26T03:02:16.153Z,11.00
2022-09-26T03:05:20.548Z,9.50
2022-09-26T03:07:56.657Z,11.80
2022-09-26T03:10:27.513Z,10.30
2022-09-26T03:13:01.432Z,17.20
2022-09-26T03:15:35.711Z,12.60
2022-09-26T03:18:12.220Z,9.00
2022-09-26T03:20:56.860Z,9.30
2022-09-26T03:23:29.746Z,12.30
2022-09-26T03:26:11.844Z,11.90
2022-09-26T03:29:00.245Z,13.60
2022-09-26T03:31:33.133Z,10.90
2022-09-26T03:34:04.890Z,11.20
2022-09-26T03:36:50.358Z,15.30
2022-09-26T03:39:25.557Z,10.60
2022-09-26T03:42:11.153Z,10.30
2022-09-26T03:44:43.173Z,11.00
2022-09-26T03:47:31.458Z,11.10
2022-09-26T03:51:44.709Z,14.30
2022-09-26T03:54:13.492Z,11.50
2022-09-26T03:56:41.965Z,11.00
2022-09-26T03:59:10.141Z,11.20
2022-09-26T04:01:40.329Z,12.40
2022-09-26T04:04:08.507Z,11.60
2022-09-26T04:06:38.079Z,11.30
2022-09-26T04:09:13.178Z,12.20
2022-09-26T04:11:46.746Z,14.70
2022-09-26T04:14:20.409Z,15.50
2022-09-26T04:16:55.533Z,14.50
2022-09-26T04:19:29.499Z,13.90
2022-09-26T04:22:04.627Z,14.00
2022-09-26T04:24:48.458Z,15.10
2022-09-26T04:27:18.843Z,14.30
2022-09-26T04:29:53.897Z,15.10
2022-09-26T04:32:51.802Z,18.20
2022-09-26T04:35:38.475Z,18.10
2022-09-26T04:38:10.574Z,15.70
2022-09-26T04:40:42.958Z,12.70
2022-09-26T04:43:43.696Z,14.90
2022-09-26T04:46:21.091Z,12.50
2022-09-26T04:48:52.306Z,15.30
2022-09-26T04:51:30.154Z,14.60
2022-09-26T04:53:58.925Z,15.10
2022-09-26T04:56:30.346Z,9.90
2022-09-26T04:59:00.536Z,16.40
2022-09-26T05:01:38.305Z,15.90
2022-09-26T05:04:18.639Z,12.80
2022-09-26T05:06:50.107Z,12.30
2022-09-26T05:09:26.404Z,15.40
2022-09-26T05:12:10.193Z,15.40
2022-09-26T05:14:42.138Z,12.00
2022-09-26T05:17:20.748Z,14.10
2022-09-26T05:19:51.999Z,13.70
2022-09-26T05:22:21.403Z,12.10
2022-09-26T05:25:10.957Z,12.00
2022-09-26T05:27:40.797Z,14.70
2022-09-26T05:30:09.664Z,26.10
2022-09-26T05:32:37.964Z,24.40
2022-09-26T05:35:07.379Z,21.40
2022-09-26T05:37:38.561Z,20.00
2022-09-26T05:40:28.057Z,18.40
2022-09-26T05:43:04.756Z,18.90
2022-09-26T05:45:49.346Z,18.40
2022-09-26T05:48:30.105Z,22.00
2022-09-26T05:51:21.199Z,20.50
2022-09-26T05:53:53.055Z,21.60
2022-09-26T05:56:24.219Z,18.00
2022-09-26T05:59:04.671Z,17.90
2022-09-26T06:01:36.526Z,16.00
2022-09-26T06:04:10.640Z,13.20
2022-09-26T06:06:48.858Z,13.20
2022-09-26T06:09:18.314Z,13.90
2022-09-26T06:12:05.392Z,11.60
2022-09-26T06:14:34.428Z,18.10
2022-09-26T06:17:02.613Z,19.20
2022-09-26T06:19:34.813Z,21.70
2022-09-26T06:22:09.760Z,24.70
2022-09-26T06:24:39.844Z,15.60
2022-09-26T06:27:28.523Z,19.80
2022-09-26T06:30:10.630Z,15.30
2022-09-26T06:32:39.473Z,14.90
2022-09-26T06:35:34.970Z,20.50
2022-09-26T06:38:11.581Z,15.80
2022-09-26T06:46:48.002Z,12.40
2022-09-26T06:49:20.745Z,9.10
2022-09-26T06:51:56.477Z,12.90
2022-09-26T06:54:24.824Z,14.70
2022-09-26T06:56:53.726Z,10.70
2022-09-26T06:59:23.433Z,19.50
2022-09-26T07:02:26.821Z,16.50
2022-09-26T07:05:05.609Z,14.10
2022-09-26T07:07:42.354Z,21.40
2022-09-26T07:10:20.410Z,16.80
2022-09-26T07:13:22.990Z,14.00
2022-09-26T07:15:51.451Z,12.00
2022-09-26T07:18:52.320Z,9.20
2022-09-26T07:21:33.666Z,8.40
2022-09-26T07:24:25.219Z,9.20
2022-09-26T07:26:53.327Z,9.50
2022-09-26T07:29:21.683Z,6.60
2022-09-26T07:31:50.723Z,7.80
2022-09-26T07:34:38.609Z,11.60
2022-09-26T07:37:07.866Z,11.00
2022-09-26T07:39:36.594Z,8.90
2022-09-26T07:42:05.305Z,7.20
2022-09-26T07:47:40.716Z,11.30
2022-09-26T07:50:25.672Z,9.40
2022-09-26T07:53:06.356Z,9.50
2022-09-26T07:56:07.457Z,11.10
2022-09-26T07:58:54.505Z,6.60
2022-09-26T08:01:43.434Z,5.90
2022-09-26T08:04:41.033Z,7.10
2022-09-26T08:07:12.348Z,6.00
2022-09-26T08:10:00.424Z,6.90
2022-09-26T08:15:33.987Z,7.40
2022-09-26T08:18:15.748Z,8.50
2022-09-26T08:20:48.437Z,7.50
2022-09-26T08:23:18.010Z,12.50
2022-09-26T08:25:55.328Z,10.10
2022-09-26T08:28:45.387Z,9.80
2022-09-26T08:31:13.682Z,13.90
2022-09-26T08:33:42.276Z,14.10
2022-09-26T08:36:18.794Z,11.60
2022-09-26T08:39:00.985Z,10.10
2022-09-26T08:42:19.638Z,10.60
2022-09-26T08:45:28.005Z,12.50
2022-09-26T08:48:39.673Z,13.70
2022-09-26T08:51:40.293Z,12.10
2022-09-26T08:54:39.672Z,18.20
2022-09-26T08:57:16.254Z,19.10
2022-09-26T08:59:47.218Z,18.80
2022-09-26T09:02:28.203Z,11.80
2022-09-26T09:05:11.807Z,12.60
2022-09-26T09:07:56.619Z,7.20
2022-09-26T09:10:49.536Z,10.80
2022-09-26T09:13:42.550Z,9.40
2022-09-26T09:17:05.662Z,10.70
2022-09-26T09:20:22.274Z,10.50
2022-09-26T09:23:40.535Z,10.00
2022-09-26T09:29:28.066Z,10.00
2022-09-26T09:32:26.456Z,7.10
2022-09-26T09:35:25.653Z,7.40
2022-09-26T09:38:24.654Z,7.70
2022-09-26T09:41:28.974Z,7.90
2022-09-26T09:44:05.745Z,7.00
2022-09-26T09:46:43.417Z,5.40
2022-09-26T09:49:23.879Z,5.30
2022-09-26T09:52:16.654Z,6.00
2022-09-26T09:55:13.274Z,6.60
2022-09-26T09:57:50.654Z,8.00
2022-09-26T10:00:26.900Z,6.70
2022-09-26T10:03:11.692Z,8.90
2022-09-26T10:05:52.724Z,7.50
2022-09-26T10:08:35.729Z,5.60
2022-09-26T10:11:43.170Z,6.30
2022-09-26T10:14:41.393Z,6.20
2022-09-26T10:17:10.062Z,7.10
2022-09-26T10:20:03.537Z,5.50
2022-09-26T10:22:43.043Z,6.10
2022-09-26T10:25:24.565Z,8.50
2022-09-26T10:27:59.353Z,6.10
2022-09-26T10:30:35.873Z,10.80
2022-09-26T10:33:36.945Z,6.80
2022-09-26T10:36:28.728Z,7.20
2022-09-26T10:39:22.246Z,5.20
2022-09-26T10:41:59.310Z,7.30
2022-09-26T10:44:32.158Z,6.90
2022-09-26T10:47:19.407Z,10.70
2022-09-26T10:53:14.231Z,5.80
2022-09-26T10:55:49.705Z,8.00
2022-09-26T10:58:27.833Z,11.40
2022-09-26T11:01:03.227Z,6.40
2022-09-26T11:03:43.421Z,7.10
2022-09-26T11:06:40.776Z,6.40
2022-09-26T11:09:38.603Z,7.00
2022-09-26T11:12:38.114Z,13.00
2022-09-26T11:15:14.274Z,10.40
2022-09-26T11:17:48.666Z,5.90
2022-09-26T11:20:43.332Z,7.00
2022-09-26T11:23:54.432Z,9.00
2022-09-26T11:26:37.374Z,6.90
2022-09-26T11:29:14.960Z,9.10
2022-09-26T11:32:05.457Z,9.20
2022-09-26T11:35:03.442Z,11.90
2022-09-26T11:37:45.727Z,10.60
2022-09-26T11:40:28.160Z,18.80
2022-09-26T11:43:33.745Z,11.80
2022-09-26T11:46:24.188Z,10.70
2022-09-26T11:49:24.876Z,9.80
2022-09-26T11:52:44.355Z,10.60
2022-09-26T11:55:40.347Z,8.80
2022-09-26T11:58:34.620Z,10.60
2022-09-26T12:01:23.514Z,9.70
2022-09-26T12:04:27.735Z,9.90
2022-09-26T12:07:11.196Z,11.90
2022-09-26T12:10:14.480Z,11.30
2022-09-26T12:13:17.613Z,10.70
2022-09-26T12:15:55.519Z,9.10
2022-09-26T12:19:05.514Z,10.30
2022-09-26T12:22:25.621Z,9.30
2022-09-26T12:25:39.068Z,9.30
2022-09-26T12:28:33.768Z,11.10
2022-09-26T12:31:26.489Z,14.30
2022-09-26T12:34:07.901Z,9.80
2022-09-26T12:36:55.479Z,11.70
2022-09-26T12:39:25.013Z,10.90
2022-09-26T12:42:11.315Z,13.10
2022-09-26T12:44:46.651Z,8.90
2022-09-26T12:47:21.794Z,10.00
2022-09-26T12:50:09.301Z,14.40
2022-09-26T12:53:02.799Z,11.00
2022-09-26T12:58:19.670Z,11.40
2022-09-26T13:01:12.042Z,8.70
2022-09-26T13:04:13.569Z,8.90
2022-09-26T13:07:17.917Z,9.60
2022-09-26T13:10:05.125Z,11.80
2022-09-26T13:12:42.778Z,8.50
2022-09-26T13:15:34.927Z,12.00
2022-09-26T13:18:46.305Z,9.20
2022-09-26T13:21:44.287Z,9.80
2022-09-26T13:24:48.951Z,9.20
2022-09-26T13:27:28.091Z,9.30
2022-09-26T13:30:35.823Z,7.30
2022-09-26T13:33:23.131Z,8.10
2022-09-26T13:36:04.140Z,9.50
2022-09-26T13:38:56.150Z,9.40
2022-09-26T13:41:44.941Z,9.90
2022-09-26T13:44:37.771Z,11.60
2022-09-26T13:48:00.089Z,8.10
2022-09-26T13:50:47.383Z,8.40
2022-09-26T13:53:39.922Z,9.90
2022-09-26T13:56:35.042Z,9.60
2022-09-26T13:59:12.241Z,10.60
2022-09-26T14:02:19.065Z,8.90
2022-09-26T14:04:50.302Z,8.20
2022-09-26T14:07:57.195Z,9.90
2022-09-26T14:10:25.328Z,13.50
2022-09-26T14:13:18.067Z,13.20
2022-09-26T14:15:49.392Z,8.60
2022-09-26T14:18:45.037Z,9.50
2022-09-26T14:21:13.184Z,8.30
2022-09-26T14:23:48.360Z,10.20
2022-09-26T14:29:36.702Z,9.90
2022-09-26T14:32:08.106Z,10.00
2022-09-26T14:34:43.642Z,9.50
2022-09-26T14:37:33.440Z,9.80
2022-09-26T14:40:17.484Z,12.10
2022-09-26T14:43:08.800Z,9.90
2022-09-26T14:46:02.698Z,13.60
2022-09-26T14:48:36.480Z,10.80
2022-09-26T14:51:18.637Z,10.20
2022-09-26T14:54:04.534Z,11.60
2022-09-26T14:56:47.543Z,10.20
2022-09-26T14:59:19.810Z,13.00
2022-09-26T15:01:48.686Z,11.70
2022-09-26T15:04:30.569Z,11.20
2022-09-26T15:07:05.432Z,36.60
2022-09-26T15:10:03.463Z,12.60
2022-09-26T15:13:13.988Z,13.80
2022-09-26T15:15:48.085Z,11.40
2022-09-26T15:18:28.569Z,13.90
2022-09-26T15:23:45.028Z,15.90
2022-09-26T15:26:16.591Z,18.00
2022-09-26T15:28:48.453Z,15.30
2022-09-26T15:31:26.146Z,12.40
2022-09-26T15:34:00.585Z,16.10
2022-09-26T15:36:40.269Z,13.20
2022-09-26T15:40:00.739Z,10.50
2022-09-26T15:42:48.981Z,11.30
2022-09-26T15:45:33.556Z,12.10
2022-09-26T15:48:05.667Z,11.50
2022-09-26T15:50:36.867Z,9.50
2022-09-26T15:53:14.417Z,12.70
2022-09-26T15:56:07.766Z,12.40
2022-09-26T15:58:48.542Z,15.30
2022-09-26T16:01:37.675Z,14.10
2022-09-26T16:04:45.402Z,13.90
2022-09-26T16:07:24.134Z,14.90
2022-09-26T16:10:33.431Z,15.00
2022-09-26T16:13:01.785Z,17.40
2022-09-26T16:15:31.327Z,20.30
2022-09-26T16:18:26.354Z,16.30
2022-09-26T16:21:16.353Z,14.90
2022-09-26T16:23:53.126Z,14.60
2022-09-26T16:26:22.535Z,12.20
2022-09-26T16:28:55.151Z,16.30
2022-09-26T16:31:52.463Z,19.90
2022-09-26T16:34:26.296Z,15.20
2022-09-26T16:36:54.765Z,13.90
2022-09-26T16:39:27.342Z,12.50
2022-09-26T16:42:07.030Z,12.80
2022-09-26T16:44:41.351Z,13.40
2022-09-26T16:47:42.868Z,14.10
2022-09-26T16:50:31.314Z,11.30
2022-09-26T16:53:06.958Z,16.10
2022-09-26T16:55:37.715Z,13.00
2022-09-26T16:58:06.607Z,11.50
2022-09-26T17:00:54.176Z,15.30
2022-09-26T17:03:32.583Z,10.70
2022-09-26T17:06:03.367Z,11.50
2022-09-26T17:08:31.649Z,13.50
2022-09-26T17:11:04.581Z,12.60
2022-09-26T17:13:35.847Z,14.40
2022-09-26T17:16:04.558Z,19.00
2022-09-26T17:18:35.140Z,16.90
2022-09-26T17:21:05.982Z,15.60
2022-09-26T17:23:41.798Z,13.00
2022-09-26T17:26:26.189Z,17.30
2022-09-26T17:29:00.491Z,14.30
2022-09-26T17:31:34.627Z,12.30
2022-09-26T17:34:07.662Z,15.50
2022-09-26T17:36:36.444Z,12.90
2022-09-26T17:42:32.251Z,12.10
2022-09-26T17:45:19.714Z,12.50
2022-09-26T17:47:48.836Z,13.50
2022-09-26T17:53:36.875Z,21.20
2022-09-26T17:56:07.298Z,17.60
2022-09-26T17:58:53.247Z,17.00
2022-09-26T18:04:38.654Z,24.30
2022-09-26T18:07:38.141Z,19.60
2022-09-26T18:10:31.165Z,16.80
2022-09-26T18:13:03.896Z,15.90
2022-09-26T18:15:36.148Z,24.00
2022-09-26T18:18:16.573Z,23.50
2022-09-26T18:26:13.906Z,20.70
2022-09-26T18:29:00.470Z,31.40
2022-09-26T18:31:40.885Z,40.20
2022-09-26T18:36:42.626Z,46.40
2022-09-26T18:39:19.906Z,40.10
2022-09-26T18:41:51.605Z,29.30
2022-09-26T18:44:49.213Z,29.10
2022-09-26T18:47:18.256Z,46.10
2022-09-26T18:49:53.031Z,42.00
2022-09-26T18:52:24.963Z,52.00
2022-09-26T18:55:14.033Z,24.30
2022-09-26T18:58:08.252Z,19.30
2022-09-26T19:01:05.102Z,15.70
2022-09-26T19:03:52.144Z,17.80
2022-09-26T19:07:44.159Z,15.40
2022-09-26T19:10:17.760Z,13.20
2022-09-26T19:12:50.806Z,13.40
2022-09-26T19:15:29.541Z,14.70
2022-09-26T19:18:03.282Z,11.40
2022-09-26T19:20:34.009Z,14.20
2022-09-26T19:23:05.807Z,13.50
2022-09-26T19:25:34.146Z,15.00
2022-09-26T19:28:06.154Z,12.00
2022-09-26T19:30:56.336Z,14.60
2022-09-26T19:33:24.999Z,18.00
2022-09-26T19:35:55.217Z,16.50
2022-09-26T19:38:34.452Z,15.40
2022-09-26T19:41:08.932Z,28.00
2022-09-26T19:43:38.922Z,23.10
2022-09-26T19:46:27.860Z,19.50
2022-09-26T19:49:07.772Z,17.90
2022-09-26T19:51:47.054Z,14.90
2022-09-26T19:54:23.236Z,20.40
2022-09-26T19:56:53.168Z,16.00
2022-09-26T19:59:27.848Z,17.50
2022-09-26T20:02:16.479Z,18.30
2022-09-26T20:04:45.549Z,17.80
2022-09-26T20:07:16.643Z,14.20
2022-09-26T20:09:54.030Z,17.20
2022-09-26T20:12:24.099Z,15.60
2022-09-26T20:14:53.541Z,16.60
2022-09-26T20:20:04.601Z,14.70
2022-09-26T20:22:42.536Z,14.40
2022-09-26T20:25:37.688Z,11.70
2022-09-26T20:28:15.633Z,13.50
2022-09-26T20:30:57.974Z,15.00
2022-09-26T20:33:27.784Z,13.10
2022-09-26T20:36:11.061Z,15.50
2022-09-26T20:38:48.974Z,14.20
2022-09-26T20:41:33.095Z,10.20
2022-09-26T20:44:33.917Z,11.10
2022-09-26T20:47:10.906Z,15.00
2022-09-26T20:50:03.682Z,14.70
2022-09-26T20:52:37.434Z,13.90
2022-09-26T20:55:23.142Z,13.00
2022-09-26T20:57:53.003Z,12.80
2022-09-26T21:00:27.725Z,11.90
2022-09-26T21:03:01.163Z,12.20
2022-09-26T21:05:32.395Z,12.80
2022-09-26T21:08:23.961Z,10.40
2022-09-26T21:10:56.366Z,9.80
2022-09-26T21:13:25.870Z,10.00
2022-09-26T21:16:04.287Z,14.90
2022-09-26T21:18:41.362Z,9.80
2022-09-26T21:21:33.702Z,7.50
2022-09-26T21:24:35.386Z,6.20
2022-09-26T21:27:04.964Z,6.50
2022-09-26T21:29:33.187Z,5.40
2022-09-26T21:32:17.992Z,5.00
2022-09-26T21:34:57.409Z,6.80
2022-09-26T21:37:26.800Z,6.60
2022-09-26T21:39:58.254Z,9.10
2022-09-26T21:42:30.297Z,14.80
2022-09-26T21:45:08.834Z,15.80
2022-09-26T21:48:00.249Z,18.00
2022-09-26T21:50:34.191Z,20.50
2022-09-26T21:53:10.372Z,23.60
2022-09-26T21:55:43.396Z,29.80
2022-09-26T21:58:17.675Z,26.90
2022-09-26T22:00:47.360Z,20.30
2022-09-26T22:03:16.228Z,21.80
2022-09-26T22:05:55.433Z,20.30
2022-09-26T22:08:25.073Z,24.00
2022-09-26T22:11:01.180Z,20.10
2022-09-26T22:13:35.751Z,20.80
2022-09-26T22:16:11.411Z,24.20
2022-09-26T22:18:43.934Z,23.70
2022-09-26T22:21:16.639Z,23.70
2022-09-26T22:23:45.257Z,25.60
2022-09-26T22:26:16.658Z,24.20
2022-09-26T22:28:45.527Z,24.10
2022-09-26T22:31:18.305Z,24.40
2022-09-26T22:34:05.162Z,21.50
2022-09-26T22:36:35.822Z,27.80
2022-09-26T22:39:08.925Z,24.30
2022-09-26T22:41:38.619Z,27.60
2022-09-26T22:44:08.302Z,25.20
2022-09-26T22:46:38.580Z,27.00
2022-09-26T22:49:21.364Z,25.00
2022-09-26T22:51:56.215Z,25.10
2022-09-26T22:54:36.902Z,22.20
2022-09-26T22:57:06.808Z,22.20
2022-09-26T22:59:35.820Z,20.20
2022-09-26T23:02:07.678Z,23.10
2022-09-26T23:04:48.788Z,19.50
2022-09-26T23:07:19.941Z,24.90
2022-09-26T23:12:23.292Z,20.60
2022-09-26T23:14:53.723Z,21.70
2022-09-26T23:17:26.776Z,22.50
2022-09-26T23:20:33.326Z,27.00
2022-09-26T23:25:50.781Z,25.50
2022-09-26T23:28:19.085Z,22.00
2022-09-26T23:30:48.312Z,20.00
2022-09-26T23:33:18.956Z,16.70
2022-09-26T23:36:03.881Z,17.20
2022-09-26T23:38:39.341Z,16.60
2022-09-26T23:41:10.998Z,11.70
2022-09-26T23:43:40.580Z,10.70
2022-09-26T23:46:11.904Z,9.10
2022-09-26T23:48:49.037Z,8.30
2022-09-26T23:51:40.904Z,7.50
2022-09-26T23:54:15.756Z,5.10
2022-09-26T23:56:48.684Z,3.20
2022-09-26T23:59:20.972Z,2.60
